Wetterdaten: aktuell Montag, 21.08.2017 17:30
Datum Zeit Temp. A. Feuchte A. Luftdruck Regen Wind Richtung Richtung Sonnenschein ET UV Solar Taupunkt Windchill Windben
21.08.2017 17:30 19,1 C 54 % 1021,6 hPa 0,0 l/m 1,7 km/h (1 Bft) N 350 15 min 0,229 mm 0,8 UV-I 172 W/m 9,6 C 19,1 C 8,0 km/h (2 Bft)
21.08.2017 16:30 19,5 C 52 % 1021,6 hPa 0,0 l/m 4,6 km/h (1 Bft) N-NO 15 25 min 0,330 mm 1,8 UV-I 294 W/m 9,4 C 19,5 C 11,3 km/h (2 Bft)
21.08.2017 15:30 19,9 C 51 % 1021,8 hPa 0,0 l/m 3,4 km/h (1 Bft) W-NW 292 50 min 0,356 mm 3,1 UV-I 649 W/m 9,5 C 19,9 C 9,7 km/h (2 Bft)
21.08.2017 14:30 19,8 C 55 % 1022,3 hPa 0,0 l/m 2,7 km/h (1 Bft) N-NW 327 50 min 0,355 mm 3,7 UV-I 265 W/m 10,5 C 19,8 C 11,3 km/h (2 Bft)
21.08.2017 13:30 19,2 C 61 % 1022,7 hPa 0,0 l/m 2,1 km/h (1 Bft) NW 325 10 min 0,229 mm 3,1 UV-I 318 W/m 11,5 C 19,2 C 6,4 km/h (2 Bft)
21.08.2017 12:30 18,3 C 64 % 1023,0 hPa 0,0 l/m 2,6 km/h (1 Bft) NW 313 30 min 0,305 mm 2,7 UV-I 341 W/m 11,4 C 18,3 C 9,7 km/h (2 Bft)
21.08.2017 11:30 17,4 C 66 % 1023,1 hPa 0,0 l/m 3,7 km/h (1 Bft) W-NW 299 15 min 0,152 mm 2,9 UV-I 366 W/m 11,0 C 17,4 C 11,3 km/h (2 Bft)
21.08.2017 10:30 16,6 C 72 % 1023,2 hPa 0,0 l/m 4,7 km/h (1 Bft) N 349 0 min 0,076 mm 2,1 UV-I 281 W/m 11,5 C 16,6 C 12,9 km/h (3 Bft)
21.08.2017 09:30 15,3 C 77 % 1023,0 hPa 0,0 l/m 2,3 km/h (1 Bft) SW 233 0 min 0,026 mm 1,2 UV-I 91 W/m 11,3 C 15,3 C 12,9 km/h (3 Bft)
21.08.2017 08:30 14,0 C 83 % 1023,0 hPa 0,0 l/m 1,3 km/h (1 Bft) SW 225 0 min 0,002 mm 0,7 UV-I 56 W/m 11,2 C 14,0 C 6,4 km/h (2 Bft)
21.08.2017 07:30 12,3 C 86 % 1022,8 hPa 0,0 l/m 1,8 km/h (1 Bft) SW 221 0 min 0,000 mm 0,0 UV-I 74 W/m 10,0 C 12,3 C 6,4 km/h (2 Bft)
21.08.2017 06:30 12,1 C 86 % 1022,6 hPa 0,0 l/m 0,3 km/h (0 Bft) W-SW 254 0 min 0,000 mm 0,0 UV-I 16 W/m 9,8 C 12,1 C 3,2 km/h (1 Bft)
21.08.2017 05:30 12,7 C 84 % 1022,2 hPa 0,0 l/m 0,0 km/h (0 Bft) SW 225 0 min 0,025 mm 0,0 UV-I 0 W/m 10,1 C 12,7 C 3,2 km/h (1 Bft)
21.08.2017 04:30 13,3 C 83 % 1022,3 hPa 0,0 l/m 3,2 km/h (1 Bft) W-SW 247 0 min 0,025 mm 0,0 UV-I 0 W/m 10,5 C 13,3 C 8,0 km/h (2 Bft)
21.08.2017 03:30 13,7 C 81 % 1022,4 hPa 0,0 l/m 3,2 km/h (1 Bft) W-SW 247 0 min 0,025 mm 0,0 UV-I 0 W/m 10,5 C 13,7 C 12,9 km/h (3 Bft)
21.08.2017 02:30 14,2 C 79 % 1022,4 hPa 0,0 l/m 0,0 km/h (0 Bft) S-SW 202 0 min 0,025 mm 0,0 UV-I 0 W/m 10,6 C 14,2 C 6,4 km/h (2 Bft)
21.08.2017 01:30 14,2 C 79 % 1022,4 hPa 0,0 l/m 3,2 km/h (1 Bft) W-SW 247 0 min 0,025 mm 0,0 UV-I 0 W/m 10,6 C 14,2 C 9,7 km/h (2 Bft)
21.08.2017 00:30 14,3 C 80 % 1022,5 hPa 0,0 l/m 1,6 km/h (1 Bft) W-SW 247 0 min 0,025 mm 0,0 UV-I 0 W/m 10,9 C 14,3 C 8,0 km/h (2 Bft)
21.08.2017 00:00 14,1 C 79 % 1022,7 hPa 0,0 l/m 0,0 km/h (0 Bft) W 270 0 min 0,025 mm 0,0 UV-I 0 W/m 10,5 C 14,1 C 1,6 km/h (1 Bft)
_ Min-Zeit 06:45 17:05 16:55 - 00:00 - - - - - - 16:20 06:55 00:00
Minimum _ 12,0 C 49 % 1021,5 hPa - 0,0 km/h (0 Bft) - - - - - - 9,1 C 12,0 C 1,6 km/h (1 Bft)
_ Max-Zeit 15:45 06:20 10:20 00:00 14:00 - - 10:40 15:00 13:55 11:50 12:35 15:45 09:45
Maximum _ 20,6 C 86 % 1023,2 hPa 0,0 l/m 6,3 km/h
N-NW (2 Bft)
- - 5 min 0,356 mm 4,6 UV-I 904 W/m 11,8 C 20,5 C 20,9 km/h
W-SW (4 Bft)
Durchschnitt _ 15,7 C 72 % 1022,6 hPa #0,0 l/m 2,5 km/h (1 Bft) W-SW - #3:15 h #2,210 mm 2,3 UV-I 311 W/m 10,6 C 15,7 C 9,0 km/h (2 Bft)